createdAt,value
2022-10-24T00:01:45.389Z,20.20
2022-10-24T00:04:13.467Z,20.10
2022-10-24T00:06:42.617Z,20.10
2022-10-24T00:09:10.878Z,20.10
2022-10-24T00:11:44.216Z,20.10
2022-10-24T00:14:12.495Z,20.00
2022-10-24T00:16:40.602Z,20.00
2022-10-24T00:19:08.709Z,19.90
2022-10-24T00:21:36.774Z,19.90
2022-10-24T00:24:05.502Z,19.90
2022-10-24T00:26:33.872Z,19.80
2022-10-24T00:29:04.458Z,19.80
2022-10-24T00:31:33.406Z,19.80
2022-10-24T00:34:02.194Z,19.80
2022-10-24T00:36:30.558Z,19.70
2022-10-24T00:38:58.749Z,19.70
2022-10-24T00:41:31.668Z,19.70
2022-10-24T00:44:23.161Z,19.60
2022-10-24T00:46:56.173Z,19.60
2022-10-24T00:49:29.138Z,19.60
2022-10-24T00:52:01.847Z,19.50
2022-10-24T00:54:30.529Z,19.50
2022-10-24T00:57:04.908Z,19.50
2022-10-24T00:59:36.166Z,19.40
2022-10-24T01:02:05.037Z,19.30
2022-10-24T01:04:33.252Z,19.30
2022-10-24T01:07:18.928Z,19.20
2022-10-24T01:10:19.496Z,19.10
2022-10-24T01:12:58.727Z,18.90
2022-10-24T01:15:39.507Z,18.80
2022-10-24T01:18:14.110Z,18.70
2022-10-24T01:21:14.409Z,18.60
2022-10-24T01:24:23.655Z,18.50
2022-10-24T01:27:29.480Z,18.50
2022-10-24T01:30:07.044Z,18.40
2022-10-24T01:32:45.484Z,18.30
2022-10-24T01:35:25.751Z,18.20
2022-10-24T01:38:02.731Z,18.20
2022-10-24T01:40:34.811Z,18.20
2022-10-24T01:43:10.927Z,18.20
2022-10-24T01:45:46.002Z,18.10
2022-10-24T01:48:18.827Z,18.00
2022-10-24T01:50:49.063Z,18.00
2022-10-24T01:53:19.006Z,17.90
2022-10-24T01:55:50.818Z,17.80
2022-10-24T01:58:19.540Z,17.80
2022-10-24T02:00:52.619Z,17.80
2022-10-24T02:03:26.175Z,17.70
2022-10-24T02:05:57.670Z,17.70
2022-10-24T02:08:32.830Z,17.70
2022-10-24T02:11:05.148Z,17.70
2022-10-24T02:13:42.153Z,17.70
2022-10-24T02:16:12.168Z,17.70
2022-10-24T02:18:41.765Z,17.70
2022-10-24T02:21:27.619Z,17.80
2022-10-24T02:24:02.804Z,17.80
2022-10-24T02:26:35.331Z,17.80
2022-10-24T02:29:13.406Z,17.80
2022-10-24T02:31:56.363Z,17.80
2022-10-24T02:34:27.338Z,17.80
2022-10-24T02:36:57.903Z,17.80
2022-10-24T02:39:27.486Z,17.80
2022-10-24T02:41:58.332Z,17.80
2022-10-24T02:44:28.179Z,17.80
2022-10-24T02:47:01.669Z,17.80
2022-10-24T02:49:29.971Z,17.80
2022-10-24T02:51:58.463Z,17.80
2022-10-24T02:54:26.610Z,17.80
2022-10-24T02:57:00.867Z,17.80
2022-10-24T02:59:29.068Z,17.90
2022-10-24T03:01:58.744Z,17.90
2022-10-24T03:04:26.856Z,17.90
2022-10-24T03:06:54.991Z,17.90
2022-10-24T03:09:23.206Z,17.90
2022-10-24T03:11:51.530Z,17.90
2022-10-24T03:14:19.656Z,17.90
2022-10-24T03:16:47.765Z,17.90
2022-10-24T03:19:17.185Z,18.00
2022-10-24T03:21:45.267Z,18.00
2022-10-24T03:24:15.176Z,18.00
2022-10-24T03:26:52.248Z,18.00
2022-10-24T03:29:20.724Z,18.00
2022-10-24T03:31:48.868Z,18.10
2022-10-24T03:34:18.242Z,18.10
2022-10-24T03:36:46.372Z,18.10
2022-10-24T03:39:14.498Z,18.10
2022-10-24T03:41:42.577Z,18.10
2022-10-24T03:44:10.651Z,18.10
2022-10-24T03:46:38.784Z,18.10
2022-10-24T03:49:06.870Z,18.10
2022-10-24T03:51:36.429Z,18.10
2022-10-24T03:54:04.956Z,18.00
2022-10-24T03:56:33.095Z,18.00
2022-10-24T03:59:01.135Z,17.90
2022-10-24T04:01:29.383Z,17.80
2022-10-24T04:03:57.519Z,17.70
2022-10-24T04:06:25.649Z,17.70
2022-10-24T04:08:55.915Z,17.70
2022-10-24T04:11:24.012Z,17.70
2022-10-24T04:13:52.726Z,17.70
2022-10-24T04:16:21.073Z,17.70
2022-10-24T04:18:49.160Z,17.70
2022-10-24T04:21:21.451Z,17.60
2022-10-24T04:23:50.201Z,17.60
2022-10-24T04:26:20.025Z,17.60
2022-10-24T04:28:48.205Z,17.70
2022-10-24T04:31:19.529Z,17.70
2022-10-24T04:33:50.707Z,17.70
2022-10-24T04:36:18.971Z,17.70
2022-10-24T04:38:47.131Z,17.70
2022-10-24T04:41:15.342Z,17.70
2022-10-24T04:43:44.790Z,17.70
2022-10-24T04:46:12.906Z,17.70
2022-10-24T04:48:41.096Z,17.80
2022-10-24T04:51:09.196Z,17.80
2022-10-24T04:53:37.557Z,17.80
2022-10-24T04:56:06.883Z,17.80
2022-10-24T04:58:34.992Z,17.70
2022-10-24T05:01:05.315Z,17.70
2022-10-24T05:03:33.604Z,17.70
2022-10-24T05:06:01.729Z,17.80
2022-10-24T05:08:29.834Z,17.80
2022-10-24T05:10:57.905Z,17.80
2022-10-24T05:13:25.963Z,17.90
2022-10-24T05:15:54.060Z,17.90
2022-10-24T05:18:23.516Z,17.90
2022-10-24T05:20:51.587Z,18.00
2022-10-24T05:23:19.789Z,18.00
2022-10-24T05:25:47.955Z,17.90
2022-10-24T05:28:16.059Z,17.90
2022-10-24T05:30:44.577Z,18.00
2022-10-24T05:33:14.255Z,17.90
2022-10-24T05:35:44.128Z,17.80
2022-10-24T05:38:12.536Z,17.80
2022-10-24T05:40:40.666Z,17.80
2022-10-24T05:43:09.319Z,17.80
2022-10-24T05:45:37.458Z,17.80
2022-10-24T05:48:06.820Z,17.80
2022-10-24T05:50:34.988Z,17.90
2022-10-24T05:53:04.696Z,18.00
2022-10-24T05:55:33.563Z,18.10
2022-10-24T05:58:01.683Z,18.20
2022-10-24T06:00:29.767Z,18.20
2022-10-24T06:02:57.813Z,18.20
2022-10-24T06:05:25.887Z,18.10
2022-10-24T06:07:54.231Z,18.10
2022-10-24T06:10:25.062Z,18.00
2022-10-24T06:12:53.195Z,17.90
2022-10-24T06:15:21.557Z,17.90
2022-10-24T06:17:50.193Z,17.90
2022-10-24T06:20:19.380Z,17.80
2022-10-24T06:22:49.404Z,17.80
2022-10-24T06:25:18.307Z,17.80
2022-10-24T06:27:48.513Z,17.80
2022-10-24T06:30:17.146Z,17.80
2022-10-24T06:32:45.298Z,17.60
2022-10-24T06:35:15.784Z,17.40
2022-10-24T06:37:47.220Z,17.30
2022-10-24T06:40:16.884Z,17.20
2022-10-24T06:42:45.156Z,17.10
2022-10-24T06:45:14.977Z,17.00
2022-10-24T06:47:43.354Z,16.80
2022-10-24T06:50:11.699Z,16.60
2022-10-24T06:52:39.770Z,16.60
2022-10-24T06:55:09.042Z,16.60
2022-10-24T06:57:37.095Z,16.50
2022-10-24T07:00:06.740Z,16.50
2022-10-24T07:02:36.432Z,16.50
2022-10-24T07:05:05.211Z,16.50
2022-10-24T07:07:33.867Z,16.50
2022-10-24T07:10:01.981Z,16.50
2022-10-24T07:12:30.073Z,16.40
2022-10-24T07:14:58.171Z,16.40
2022-10-24T07:17:26.276Z,16.40
2022-10-24T07:19:56.813Z,16.40
2022-10-24T07:22:26.623Z,16.30
2022-10-24T07:24:57.315Z,16.30
2022-10-24T07:27:25.515Z,16.30
2022-10-24T07:29:54.393Z,16.20
2022-10-24T07:32:22.666Z,16.20
2022-10-24T07:34:50.886Z,16.20
2022-10-24T07:37:23.258Z,16.20
2022-10-24T07:39:51.356Z,16.20
2022-10-24T07:42:19.738Z,16.20
2022-10-24T07:44:48.096Z,16.10
2022-10-24T07:47:16.200Z,16.10
2022-10-24T07:49:44.267Z,16.10
2022-10-24T07:52:12.360Z,16.20
2022-10-24T07:54:41.794Z,16.20
2022-10-24T07:57:09.848Z,16.30
2022-10-24T07:59:42.190Z,16.30
2022-10-24T08:02:12.264Z,16.20
2022-10-24T08:04:40.451Z,16.30
2022-10-24T08:07:13.280Z,16.30
2022-10-24T08:09:46.270Z,16.30
2022-10-24T08:12:46.711Z,16.40
2022-10-24T08:15:35.516Z,16.30
2022-10-24T08:23:25.891Z,16.40
2022-10-24T08:25:55.881Z,16.50
2022-10-24T08:28:24.470Z,16.50
2022-10-24T08:31:00.388Z,16.40
2022-10-24T08:33:29.407Z,16.50
2022-10-24T08:36:01.457Z,16.40
2022-10-24T08:38:30.583Z,16.40
2022-10-24T08:41:04.102Z,16.40
2022-10-24T08:52:33.752Z,16.30
2022-10-24T08:55:20.295Z,16.30
2022-10-24T08:57:58.620Z,16.40
2022-10-24T09:00:29.699Z,16.40
2022-10-24T09:03:51.183Z,16.40
2022-10-24T09:06:30.718Z,16.50
2022-10-24T09:09:01.563Z,16.50
2022-10-24T09:11:42.724Z,16.60
2022-10-24T09:14:16.370Z,16.60
2022-10-24T09:16:47.369Z,16.70
2022-10-24T09:19:42.183Z,16.70
2022-10-24T09:23:32.692Z,16.80
2022-10-24T09:26:02.090Z,16.80
2022-10-24T09:28:39.385Z,16.90
2022-10-24T09:31:19.413Z,16.90
2022-10-24T09:33:49.798Z,16.90
2022-10-24T09:36:21.438Z,17.00
2022-10-24T09:38:50.724Z,17.00
2022-10-24T09:41:23.462Z,17.00
2022-10-24T09:44:30.172Z,17.00
2022-10-24T09:46:59.762Z,17.00
2022-10-24T09:49:36.224Z,17.10
2022-10-24T09:52:17.421Z,17.00
2022-10-24T09:54:47.157Z,16.90
2022-10-24T09:57:17.964Z,16.90
2022-10-24T09:59:48.988Z,16.90
2022-10-24T10:02:27.473Z,16.90
2022-10-24T10:05:45.672Z,16.90
2022-10-24T10:08:20.664Z,16.80
2022-10-24T10:11:01.572Z,16.80
2022-10-24T10:13:31.653Z,16.80
2022-10-24T10:53:10.132Z,17.80
2022-10-24T10:55:47.519Z,17.90
2022-10-24T10:58:29.870Z,17.90
2022-10-24T11:01:09.634Z,18.00
2022-10-24T11:03:46.893Z,18.10
2022-10-24T11:06:30.887Z,18.10
2022-10-24T11:09:29.899Z,18.10
2022-10-24T11:12:17.871Z,18.10
2022-10-24T11:14:51.593Z,18.10
2022-10-24T11:17:25.454Z,18.00
2022-10-24T11:20:06.626Z,18.00
2022-10-24T11:22:41.896Z,17.90
2022-10-24T11:25:25.067Z,18.00
2022-10-24T11:28:04.686Z,18.00
2022-10-24T11:30:48.129Z,18.00
2022-10-24T11:33:21.302Z,18.10
2022-10-24T11:36:11.095Z,18.00
2022-10-24T11:38:47.654Z,18.10
2022-10-24T11:41:30.864Z,18.00
2022-10-24T11:44:05.012Z,18.00
2022-10-24T11:46:40.244Z,18.00
2022-10-24T11:49:27.262Z,17.90
2022-10-24T11:52:02.557Z,17.90
2022-10-24T11:57:54.120Z,18.00
2022-10-24T12:00:30.048Z,18.10
2022-10-24T12:51:06.623Z,18.00
2022-10-24T16:17:25.352Z,17.10
2022-10-24T16:19:53.450Z,16.90
2022-10-24T16:22:21.546Z,16.90
2022-10-24T16:24:49.695Z,16.80
2022-10-24T16:27:17.771Z,16.80
2022-10-24T16:29:45.885Z,16.80
2022-10-24T16:32:14.008Z,16.70
2022-10-24T16:34:48.759Z,16.70
2022-10-24T16:37:18.927Z,16.70
2022-10-24T16:39:47.013Z,16.70
2022-10-24T16:42:15.218Z,16.60
2022-10-24T16:44:43.367Z,16.60
2022-10-24T16:47:11.470Z,16.60
2022-10-24T16:49:39.593Z,16.70
2022-10-24T16:52:09.302Z,16.70
2022-10-24T16:54:37.410Z,16.70
2022-10-24T16:57:05.626Z,16.70
2022-10-24T16:59:35.227Z,16.70
2022-10-24T17:02:03.535Z,16.70
2022-10-24T17:04:33.876Z,16.80
2022-10-24T17:07:04.226Z,16.80
2022-10-24T17:09:33.699Z,16.80
2022-10-24T17:12:06.179Z,16.80
2022-10-24T17:14:36.296Z,16.80
2022-10-24T17:17:05.419Z,16.70
2022-10-24T17:19:35.653Z,16.70
2022-10-24T17:22:04.187Z,16.60
2022-10-24T17:24:34.933Z,16.60
2022-10-24T17:27:03.370Z,16.50
2022-10-24T17:29:34.788Z,16.50
2022-10-24T17:32:03.160Z,16.50
2022-10-24T17:34:31.901Z,16.40
2022-10-24T17:37:07.316Z,16.40
2022-10-24T17:39:47.919Z,16.30
2022-10-24T17:42:16.598Z,16.30
2022-10-24T17:44:45.651Z,16.20
2022-10-24T17:47:15.282Z,16.20
2022-10-24T17:49:43.511Z,16.10
2022-10-24T17:52:13.945Z,16.10
2022-10-24T17:54:45.759Z,16.10
2022-10-24T17:57:14.179Z,16.10
2022-10-24T17:59:42.448Z,16.10
2022-10-24T18:02:14.231Z,16.00
2022-10-24T18:04:44.511Z,16.00
2022-10-24T18:07:12.749Z,16.00
2022-10-24T18:09:41.013Z,16.00
2022-10-24T18:12:10.509Z,15.90
2022-10-24T18:14:38.746Z,15.90
2022-10-24T18:17:06.906Z,15.90
2022-10-24T18:19:35.006Z,16.00
2022-10-24T18:22:03.094Z,16.00
2022-10-24T18:24:31.215Z,16.00
2022-10-24T18:26:59.326Z,16.00
2022-10-24T18:29:28.815Z,16.00
2022-10-24T18:31:56.925Z,15.80
2022-10-24T18:34:25.428Z,15.70
2022-10-24T18:36:53.525Z,15.40
2022-10-24T18:39:25.038Z,15.00
2022-10-24T18:42:04.480Z,14.60
2022-10-24T18:44:36.274Z,14.30
2022-10-24T18:47:07.662Z,14.10
2022-10-24T18:49:37.154Z,13.80
2022-10-24T18:52:18.412Z,13.40
2022-10-24T18:55:03.894Z,13.30
2022-10-24T18:57:34.656Z,13.30
2022-10-24T19:00:07.078Z,13.20
2022-10-24T19:02:40.714Z,13.10
2022-10-24T19:05:19.358Z,13.10
2022-10-24T19:07:48.837Z,13.10
2022-10-24T19:10:23.366Z,13.00
2022-10-24T19:12:52.738Z,13.10
2022-10-24T19:15:24.225Z,13.10
2022-10-24T19:17:52.895Z,13.10
2022-10-24T19:20:23.984Z,13.10
2022-10-24T19:22:52.509Z,13.10
2022-10-24T19:25:20.930Z,13.10
2022-10-24T19:27:49.743Z,13.20
2022-10-24T19:30:18.095Z,13.20
2022-10-24T19:32:47.938Z,13.30
2022-10-24T19:35:17.275Z,13.30
2022-10-24T19:37:45.823Z,13.30
2022-10-24T19:40:14.758Z,13.40
2022-10-24T19:42:42.897Z,13.40
2022-10-24T19:45:11.458Z,13.50
2022-10-24T19:47:39.571Z,13.40
2022-10-24T19:50:12.239Z,13.40
2022-10-24T19:52:40.511Z,13.40
2022-10-24T19:55:09.199Z,13.40
2022-10-24T19:57:37.282Z,13.30
2022-10-24T20:00:06.535Z,13.30
2022-10-24T20:02:39.877Z,13.30
2022-10-24T20:05:10.516Z,13.30
2022-10-24T20:07:38.614Z,13.40
2022-10-24T20:10:08.082Z,13.40
2022-10-24T20:12:36.235Z,13.40
2022-10-24T20:15:04.633Z,13.40
2022-10-24T20:17:32.716Z,13.40
2022-10-24T20:20:00.833Z,13.40
2022-10-24T20:22:30.304Z,13.50
2022-10-24T20:24:58.642Z,13.50
2022-10-24T20:27:26.803Z,13.50
2022-10-24T20:29:56.060Z,13.60
2022-10-24T20:32:24.316Z,13.60
2022-10-24T20:34:52.480Z,13.70
2022-10-24T20:37:20.581Z,13.70
2022-10-24T20:39:50.172Z,13.70
2022-10-24T20:42:20.164Z,13.70
2022-10-24T20:44:48.268Z,13.70
2022-10-24T20:47:16.383Z,13.70
2022-10-24T20:49:44.461Z,13.70
2022-10-24T20:54:45.600Z,13.60
2022-10-24T20:57:15.751Z,13.60
2022-10-24T20:59:43.819Z,13.60
2022-10-24T21:02:11.999Z,13.60
2022-10-24T21:04:40.130Z,13.60
2022-10-24T21:07:08.221Z,13.60
2022-10-24T21:09:36.341Z,13.60
2022-10-24T21:12:05.119Z,13.60
2022-10-24T21:14:34.559Z,13.50
2022-10-24T21:17:02.787Z,13.50
2022-10-24T21:19:31.353Z,13.50
2022-10-24T21:21:59.444Z,13.50
2022-10-24T21:24:27.499Z,13.50
2022-10-24T21:26:55.589Z,13.50
2022-10-24T21:29:39.105Z,13.50
2022-10-24T21:32:08.799Z,13.40
2022-10-24T21:34:36.883Z,13.30
2022-10-24T21:37:05.823Z,13.30
2022-10-24T21:39:33.913Z,13.20
2022-10-24T21:42:01.980Z,13.20
2022-10-24T21:44:30.089Z,13.10
2022-10-24T21:46:58.178Z,13.10
2022-10-24T21:49:27.671Z,13.10
2022-10-24T21:51:55.757Z,13.00
2022-10-24T21:54:26.286Z,13.00
2022-10-24T21:56:54.421Z,12.90
2022-10-24T21:59:22.917Z,12.90
2022-10-24T22:01:52.935Z,12.90
2022-10-24T22:04:21.863Z,12.80
2022-10-24T22:06:51.288Z,12.80
2022-10-24T22:09:23.714Z,12.70
2022-10-24T22:11:52.004Z,12.60
2022-10-24T22:14:20.154Z,12.60
2022-10-24T22:16:48.849Z,12.50
2022-10-24T22:19:17.279Z,12.50
2022-10-24T22:21:47.918Z,12.50
2022-10-24T22:24:20.256Z,12.50
2022-10-24T22:26:49.051Z,12.50
2022-10-24T22:29:21.211Z,12.50
2022-10-24T22:31:52.285Z,12.50
2022-10-24T22:34:23.502Z,12.50
2022-10-24T22:37:12.425Z,12.50
2022-10-24T22:39:42.763Z,12.40
2022-10-24T22:42:14.760Z,12.40
2022-10-24T22:44:46.921Z,12.30
2022-10-24T22:47:45.807Z,12.30
2022-10-24T22:50:32.962Z,12.20
2022-10-24T22:53:01.854Z,12.20
2022-10-24T22:55:36.598Z,12.10
2022-10-24T22:58:05.525Z,12.00
2022-10-24T23:00:34.228Z,12.00
2022-10-24T23:03:13.481Z,11.90
2022-10-24T23:05:48.978Z,11.90
2022-10-24T23:08:29.276Z,11.80
2022-10-24T23:10:59.664Z,11.70
2022-10-24T23:13:28.413Z,11.60
2022-10-24T23:16:02.827Z,11.60
2022-10-24T23:18:31.648Z,11.60
2022-10-24T23:21:10.347Z,11.50
2022-10-24T23:23:39.053Z,11.40
2022-10-24T23:26:20.437Z,11.40
2022-10-24T23:28:57.569Z,11.40
2022-10-24T23:31:26.409Z,11.30
2022-10-24T23:33:55.437Z,11.30
2022-10-24T23:36:26.616Z,11.20
2022-10-24T23:38:58.712Z,11.20
2022-10-24T23:41:29.021Z,11.20
2022-10-24T23:43:57.968Z,11.20
2022-10-24T23:46:30.577Z,11.20
2022-10-24T23:49:16.667Z,11.20
2022-10-24T23:51:54.240Z,11.20
2022-10-24T23:54:27.347Z,11.20
2022-10-24T23:56:57.650Z,11.20
2022-10-24T23:59:25.755Z,11.20
